Time;durP1;ratioP1;P1;durP2;ratioP2;P2;SDS_P1;SDS_P2;PMS_P1;PMS_P2;Temp;Humidity;BMP_temperature;BMP_pressure;BME280_temperature;BME280_humidity;BME280_pressure;Samples;Min_cycle;Max_cycle;Signal;HPM_P1;HPM_P2
2024/01/02 00:02:06;;;;;;;5.10;1.45;;;8.10;95.10;;;;;;5004995;28;20091;-80
2024/01/02 00:04:32;;;;;;;6.05;1.52;;;8.10;95.10;;;;;;5008198;28;20106;-81
2024/01/02 00:06:57;;;;;;;4.68;1.55;;;8.10;95.40;;;;;;5002890;28;20544;-80
2024/01/02 00:09:23;;;;;;;2.92;1.27;;;8.10;95.50;;;;;;5005708;28;20501;-82
2024/01/02 00:11:48;;;;;;;2.65;1.30;;;8.10;95.60;;;;;;5006264;28;20022;-81
2024/01/02 00:14:14;;;;;;;4.25;1.40;;;8.10;95.60;;;;;;5006514;28;20109;-81
2024/01/02 00:16:39;;;;;;;5.63;1.48;;;8.10;95.80;;;;;;5006919;28;20144;-79
2024/01/02 00:19:05;;;;;;;4.63;1.40;;;8.10;96.10;;;;;;5005348;28;20118;-79
2024/01/02 00:21:30;;;;;;;5.85;1.45;;;8.10;96.20;;;;;;5003540;28;20034;-80
2024/01/02 00:23:57;;;;;;;5.57;1.70;;;8.00;96.20;;;;;;5007135;28;20037;-80
2024/01/02 00:26:23;;;;;;;4.82;1.50;;;8.10;96.20;;;;;;5010299;28;20026;-81
2024/01/02 00:28:48;;;;;;;6.70;1.40;;;8.10;96.30;;;;;;5008100;28;20465;-80
2024/01/02 00:31:14;;;;;;;7.30;1.50;;;8.10;96.50;;;;;;5010613;28;20018;-81
2024/01/02 00:33:40;;;;;;;8.32;1.75;;;8.00;96.70;;;;;;5013817;28;20029;-79
2024/01/02 00:36:10;;;;;;;4.10;1.40;;;8.00;96.70;;;;;;5012515;28;20030;-80
2024/01/02 00:38:36;;;;;;;4.57;1.42;;;8.10;96.70;;;;;;5015887;28;20060;-80
2024/01/02 00:41:02;;;;;;;5.40;1.67;;;8.00;96.90;;;;;;5010715;28;20611;-79
2024/01/02 00:43:28;;;;;;;4.10;1.42;;;8.00;97.10;;;;;;5012024;28;20013;-81
2024/01/02 00:45:53;;;;;;;3.00;1.30;;;8.00;97.20;;;;;;5011284;28;20030;-82
2024/01/02 00:48:19;;;;;;;5.20;1.50;;;8.00;97.30;;;;;;5013191;28;20018;-78
2024/01/02 00:50:44;;;;;;;3.75;1.70;;;8.00;97.30;;;;;;5014218;28;20034;-80
2024/01/02 00:53:10;;;;;;;5.38;1.63;;;8.00;97.80;;;;;;5013116;28;20030;-79
2024/01/02 00:55:35;;;;;;;3.20;1.08;;;7.90;98.10;;;;;;5014052;28;20030;-80
2024/01/02 00:58:01;;;;;;;3.88;1.40;;;8.00;98.40;;;;;;5010901;28;20036;-78
2024/01/02 01:00:27;;;;;;;4.72;1.70;;;8.00;98.30;;;;;;5013948;28;20026;-80
2024/01/02 01:02:52;;;;;;;3.85;1.30;;;8.00;98.40;;;;;;5008074;28;20045;-80
2024/01/02 01:05:18;;;;;;;3.40;1.50;;;8.00;98.40;;;;;;5008544;28;20021;-79
2024/01/02 01:07:44;;;;;;;8.23;1.52;;;8.00;98.40;;;;;;5011130;28;20465;-79
2024/01/02 01:10:09;;;;;;;5.68;1.40;;;8.00;98.60;;;;;;5003783;28;20022;-80
2024/01/02 01:12:36;;;;;;;4.35;1.50;;;8.00;98.80;;;;;;5006597;28;20026;-79
2024/01/02 01:15:02;;;;;;;5.35;1.88;;;8.00;99.10;;;;;;5006174;28;20520;-79
2024/01/02 01:17:28;;;;;;;5.60;1.70;;;8.00;99.30;;;;;;5010603;28;20022;-81
2024/01/02 01:19:53;;;;;;;4.05;1.40;;;8.00;99.50;;;;;;5006693;28;20018;-80
2024/01/02 01:22:19;;;;;;;4.18;1.40;;;8.00;99.50;;;;;;5004735;28;20120;-81
2024/01/02 01:24:44;;;;;;;3.10;1.42;;;8.00;99.40;;;;;;5005444;28;20034;-79
2024/01/02 01:27:10;;;;;;;2.70;1.30;;;8.10;99.50;;;;;;5011732;28;20041;-80
2024/01/02 01:29:35;;;;;;;3.92;1.30;;;8.10;99.30;;;;;;5012349;28;20033;-80
2024/01/02 01:32:01;;;;;;;3.28;1.15;;;8.10;99.30;;;;;;5005312;28;20458;-79
2024/01/02 01:34:26;;;;;;;4.43;1.35;;;8.10;99.30;;;;;;5007083;28;20026;-80
2024/01/02 01:36:54;;;;;;;3.80;1.27;;;8.10;99.30;;;;;;5004902;28;20038;-79
2024/01/02 01:39:19;;;;;;;4.30;1.05;;;8.10;99.40;;;;;;5008051;28;20049;-81
2024/01/02 01:41:45;;;;;;;4.25;1.10;;;8.20;99.30;;;;;;5001634;28;20034;-79
2024/01/02 01:44:10;;;;;;;3.85;1.30;;;8.10;99.40;;;;;;5005719;28;20022;-81
2024/01/02 01:46:39;;;;;;;2.35;1.10;;;8.10;99.40;;;;;;5005788;28;20034;-79
2024/01/02 01:49:07;;;;;;;2.63;0.98;;;8.20;99.50;;;;;;5004007;28;20032;-80
2024/01/02 01:51:35;;;;;;;4.80;1.35;;;8.20;99.40;;;;;;5009374;28;20045;-83
2024/01/02 01:54:02;;;;;;;3.08;1.27;;;8.20;99.90;;;;;;5004493;28;20057;-80
2024/01/02 01:56:29;;;;;;;2.60;1.23;;;8.10;99.90;;;;;;5000958;28;20030;-80
2024/01/02 01:58:55;;;;;;;2.25;1.05;;;8.10;99.90;;;;;;5003989;28;20496;-82
2024/01/02 02:01:21;;;;;;;1.75;0.95;;;8.10;99.90;;;;;;5007193;28;20026;-78
2024/01/02 02:03:48;;;;;;;2.00;1.02;;;8.10;99.90;;;;;;5003754;28;20404;-80
2024/01/02 02:06:14;;;;;;;2.47;1.00;;;8.10;99.90;;;;;;5009023;28;20077;-79
2024/01/02 02:08:41;;;;;;;3.60;1.15;;;8.10;99.90;;;;;;5005035;28;20044;-80
2024/01/02 02:11:06;;;;;;;3.97;1.00;;;8.10;99.90;;;;;;5008339;28;20022;-79
2024/01/02 02:13:32;;;;;;;2.17;1.00;;;8.10;99.90;;;;;;5003658;28;20466;-80
2024/01/02 02:15:57;;;;;;;4.25;0.93;;;8.10;99.90;;;;;;5009673;28;20544;-79
2024/01/02 02:18:23;;;;;;;3.65;1.10;;;8.20;99.90;;;;;;5013638;28;20034;-81
2024/01/02 02:20:49;;;;;;;1.35;0.90;;;8.20;99.90;;;;;;5011483;28;20022;-79
2024/01/02 02:23:16;;;;;;;0.90;0.70;;;8.20;99.90;;;;;;5009356;28;20014;-79
2024/01/02 02:25:41;;;;;;;0.82;0.80;;;8.20;99.90;;;;;;5009316;28;20444;-76
2024/01/02 02:28:07;;;;;;;1.25;0.77;;;8.20;99.90;;;;;;5011818;28;20026;-80
2024/01/02 02:30:33;;;;;;;2.50;1.10;;;8.20;99.90;;;;;;5010969;28;20024;-80
2024/01/02 02:32:58;;;;;;;2.50;1.10;;;8.20;99.90;;;;;;5013580;28;20548;-79
2024/01/02 02:35:24;;;;;;;3.05;1.00;;;8.20;99.90;;;;;;5011475;28;20040;-81
2024/01/02 02:37:49;;;;;;;2.95;0.90;;;8.20;99.90;;;;;;5010903;28;20532;-81
2024/01/02 02:40:15;;;;;;;1.17;0.80;;;8.20;99.90;;;;;;5010423;28;20489;-82
2024/01/02 02:42:40;;;;;;;1.83;0.88;;;8.30;99.90;;;;;;5012641;28;20168;-80
2024/01/02 02:45:06;;;;;;;3.03;0.90;;;8.30;99.90;;;;;;5008395;28;20034;-77
2024/01/02 02:47:32;;;;;;;1.77;0.90;;;8.30;99.90;;;;;;5012788;28;20024;-78
2024/01/02 02:49:57;;;;;;;2.38;1.10;;;8.30;99.90;;;;;;5009154;28;20479;-79
2024/01/02 02:52:23;;;;;;;0.52;0.52;;;8.30;99.90;;;;;;5010195;28;20025;-81
2024/01/02 02:54:49;;;;;;;1.17;0.73;;;8.30;99.90;;;;;;5009972;28;20026;-79
2024/01/02 02:57:15;;;;;;;2.90;0.98;;;8.30;99.90;;;;;;5011373;28;20597;-79
2024/01/02 02:59:41;;;;;;;1.20;0.70;;;8.20;99.90;;;;;;5010197;28;20053;-79
2024/01/02 03:02:06;;;;;;;0.65;0.60;;;8.30;99.90;;;;;;5011102;28;20452;-80
2024/01/02 03:04:32;;;;;;;3.80;0.82;;;8.30;99.90;;;;;;5012194;28;20428;-81
2024/01/02 03:06:57;;;;;;;0.70;0.70;;;8.30;99.90;;;;;;5013470;28;20026;-78
2024/01/02 03:09:23;;;;;;;1.35;0.85;;;8.30;99.90;;;;;;5012368;28;20033;-81
2024/01/02 03:11:48;;;;;;;0.85;0.73;;;8.30;99.90;;;;;;5009894;28;20025;-79
2024/01/02 03:14:14;;;;;;;0.70;0.60;;;8.30;99.90;;;;;;5010738;28;20049;-82
2024/01/02 03:16:41;;;;;;;1.60;0.80;;;8.30;99.90;;;;;;5010933;28;20387;-78
2024/01/02 03:19:07;;;;;;;1.85;0.70;;;8.30;99.90;;;;;;5009464;28;20405;-80
2024/01/02 03:21:33;;;;;;;1.50;0.80;;;8.30;99.90;;;;;;5011880;28;20029;-80
2024/01/02 03:23:58;;;;;;;3.10;0.75;;;8.30;99.90;;;;;;5011644;28;20030;-80
2024/01/02 03:26:24;;;;;;;1.05;0.70;;;8.30;99.90;;;;;;5011308;28;20592;-80
2024/01/02 03:28:50;;;;;;;0.88;0.70;;;8.30;99.90;;;;;;5010865;28;20022;-80
2024/01/02 03:31:16;;;;;;;1.75;0.77;;;8.30;99.90;;;;;;5010967;28;20033;-79
2024/01/02 03:33:42;;;;;;;0.93;0.60;;;8.30;99.90;;;;;;5010897;28;20018;-80
2024/01/02 03:36:19;;;;;;;1.42;0.68;;;8.30;99.90;;;;;;5011340;28;20034;-80
2024/01/02 03:38:49;;;;;;;0.70;0.70;;;8.30;99.90;;;;;;5009369;28;20083;-81
2024/01/02 03:41:15;;;;;;;0.85;0.73;;;8.20;99.90;;;;;;5009544;28;20040;-81
2024/01/02 03:43:41;;;;;;;0.93;0.60;;;8.30;99.90;;;;;;5011119;28;20086;-81
2024/01/02 03:46:06;;;;;;;1.38;0.68;;;8.20;99.90;;;;;;5011260;28;20378;-81
2024/01/02 03:48:32;;;;;;;1.27;0.85;;;8.30;99.90;;;;;;5012170;28;20025;-80
2024/01/02 03:50:58;;;;;;;0.98;0.80;;;8.30;99.90;;;;;;5011116;28;20083;-81
2024/01/02 03:53:23;;;;;;;0.60;0.60;;;8.30;99.90;;;;;;5012004;28;20025;-81
2024/01/02 03:55:49;;;;;;;1.08;0.55;;;8.30;99.90;;;;;;5007672;28;20489;-79
2024/01/02 03:58:14;;;;;;;1.92;0.77;;;8.30;99.90;;;;;;5010020;28;20033;-80
2024/01/02 04:00:40;;;;;;;1.13;0.60;;;8.30;99.90;;;;;;5011153;28;20572;-81
2024/01/02 04:03:09;;;;;;;0.50;0.50;;;8.30;99.90;;;;;;5010830;28;20088;-81
2024/01/02 04:05:35;;;;;;;0.60;0.60;;;8.30;99.90;;;;;;5010297;28;20393;-81
2024/01/02 04:08:00;;;;;;;0.75;0.60;;;8.30;99.90;;;;;;5008589;28;20079;-81
2024/01/02 04:10:26;;;;;;;0.50;0.50;;;8.30;99.90;;;;;;5011155;28;20032;-78
2024/01/02 04:12:52;;;;;;;0.60;0.60;;;8.30;99.90;;;;;;5008886;28;20037;-80
2024/01/02 04:15:17;;;;;;;0.77;0.70;;;8.30;99.90;;;;;;5010458;28;20029;-80
2024/01/02 04:17:43;;;;;;;0.60;0.60;;;8.40;99.90;;;;;;5010643;28;20034;-81
2024/01/02 04:20:09;;;;;;;0.68;0.68;;;8.40;99.90;;;;;;5010769;28;20036;-80
2024/01/02 04:22:34;;;;;;;0.70;0.70;;;8.40;99.90;;;;;;5008054;28;20029;-82
2024/01/02 04:25:00;;;;;;;0.65;0.65;;;8.40;99.90;;;;;;5014088;28;20013;-81
2024/01/02 04:27:25;;;;;;;0.68;0.60;;;8.40;99.90;;;;;;5011150;28;20045;-82
2024/01/02 04:29:51;;;;;;;1.42;0.60;;;8.40;99.90;;;;;;5012418;28;20026;-80
2024/01/02 04:32:16;;;;;;;0.50;0.50;;;8.40;99.90;;;;;;5011591;28;20020;-80
2024/01/02 04:34:42;;;;;;;0.55;0.50;;;8.40;99.90;;;;;;5009929;28;20021;-81
2024/01/02 04:37:08;;;;;;;0.50;0.50;;;8.50;99.90;;;;;;5011505;28;20054;-79
2024/01/02 04:39:33;;;;;;;0.50;0.50;;;8.60;99.90;;;;;;5010277;28;20038;-82
2024/01/02 04:42:00;;;;;;;0.55;0.55;;;8.60;99.90;;;;;;5011487;28;20048;-80
2024/01/02 04:44:26;;;;;;;0.50;0.50;;;8.70;99.90;;;;;;5012390;28;20022;-81
2024/01/02 04:46:52;;;;;;;0.40;0.40;;;8.70;99.90;;;;;;5013806;28;20681;-80
2024/01/02 04:49:18;;;;;;;0.40;0.40;;;8.70;99.90;;;;;;5010992;28;20405;-82
2024/01/02 04:51:44;;;;;;;0.40;0.40;;;8.90;99.90;;;;;;5011118;28;20052;-83
2024/01/02 04:54:09;;;;;;;0.50;0.50;;;8.90;99.90;;;;;;5012606;28;20409;-81
2024/01/02 04:56:35;;;;;;;0.50;0.50;;;8.80;99.90;;;;;;5010542;28;20520;-81
2024/01/02 04:59:00;;;;;;;0.40;0.40;;;8.90;99.90;;;;;;5010564;28;20556;-78
2024/01/02 05:01:26;;;;;;;0.50;0.50;;;8.90;99.90;;;;;;5008453;28;20508;-79
2024/01/02 05:03:51;;;;;;;0.50;0.50;;;9.00;99.90;;;;;;5014739;28;20505;-78
2024/01/02 05:06:17;;;;;;;0.50;0.50;;;9.00;99.90;;;;;;5015632;28;20044;-79
2024/01/02 05:08:43;;;;;;;0.63;0.63;;;9.10;99.90;;;;;;5012584;28;20026;-82
2024/01/02 05:11:09;;;;;;;0.50;0.50;;;9.10;99.90;;;;;;5009609;28;20064;-78
2024/01/02 05:13:36;;;;;;;0.50;0.50;;;9.10;99.90;;;;;;5011778;28;20030;-81
2024/01/02 05:16:01;;;;;;;0.50;0.50;;;9.20;99.90;;;;;;5008415;28;20029;-78
2024/01/02 05:18:27;;;;;;;0.40;0.40;;;9.20;99.90;;;;;;5008532;28;20026;-79
2024/01/02 05:20:52;;;;;;;0.60;0.60;;;9.20;99.90;;;;;;5008645;28;20545;-78
2024/01/02 05:23:18;;;;;;;0.60;0.60;;;9.20;99.90;;;;;;5010527;28;20042;-79
2024/01/02 05:25:44;;;;;;;0.52;0.52;;;9.20;99.90;;;;;;5010544;28;20076;-78
2024/01/02 05:28:10;;;;;;;0.70;0.47;;;9.20;99.90;;;;;;5013847;28;20381;-81
2024/01/02 05:30:35;;;;;;;0.50;0.50;;;9.30;99.90;;;;;;5015606;28;20046;-78
2024/01/02 05:33:01;;;;;;;0.50;0.50;;;9.30;99.90;;;;;;5011938;28;20022;-82
2024/01/02 05:35:26;;;;;;;0.55;0.55;;;9.30;99.90;;;;;;5014453;28;20022;-81
2024/01/02 05:37:52;;;;;;;0.65;0.65;;;9.40;99.90;;;;;;5014400;28;20105;-78
2024/01/02 05:40:17;;;;;;;0.60;0.60;;;9.40;99.90;;;;;;5012551;28;20025;-80
2024/01/02 05:42:43;;;;;;;1.55;0.60;;;9.50;99.90;;;;;;5014865;28;20378;-81
2024/01/02 05:45:09;;;;;;;0.70;0.70;;;9.50;99.90;;;;;;5012360;28;20052;-80
2024/01/02 05:47:34;;;;;;;0.60;0.60;;;9.50;99.90;;;;;;5012434;28;20021;-80
2024/01/02 05:50:00;;;;;;;0.60;0.60;;;9.60;99.90;;;;;;5013840;28;20041;-80
2024/01/02 05:52:26;;;;;;;0.80;0.80;;;9.70;99.90;;;;;;5012651;28;20488;-79
2024/01/02 05:54:51;;;;;;;0.80;0.80;;;9.70;99.90;;;;;;5014016;28;20052;-79
2024/01/02 05:57:17;;;;;;;0.65;0.65;;;9.70;99.90;;;;;;5012851;28;20393;-80
2024/01/02 05:59:42;;;;;;;0.60;0.60;;;9.80;99.90;;;;;;5012580;28;20022;-79
2024/01/02 06:02:08;;;;;;;0.60;0.60;;;9.80;99.90;;;;;;5013116;28;20026;-82
2024/01/02 06:04:33;;;;;;;0.50;0.50;;;9.90;99.90;;;;;;5014685;28;20061;-79
2024/01/02 06:06:59;;;;;;;0.50;0.50;;;9.90;99.90;;;;;;5017300;28;20437;-81
2024/01/02 06:09:25;;;;;;;0.50;0.50;;;10.00;99.90;;;;;;5014281;28;20022;-81
2024/01/02 06:11:51;;;;;;;0.68;0.68;;;10.00;99.90;;;;;;5014878;28;20077;-80
2024/01/02 06:14:17;;;;;;;0.70;0.70;;;10.10;99.90;;;;;;5013667;28;20029;-80
2024/01/02 06:16:42;;;;;;;0.60;0.60;;;10.10;99.90;;;;;;5012989;28;20197;-81
2024/01/02 06:19:08;;;;;;;0.50;0.50;;;10.20;99.90;;;;;;5011379;28;20026;-80
2024/01/02 06:21:33;;;;;;;0.52;0.52;;;10.20;99.90;;;;;;5013561;28;20146;-77
2024/01/02 06:23:59;;;;;;;0.57;0.57;;;10.20;99.90;;;;;;5012922;28;20378;-80
2024/01/02 06:26:25;;;;;;;0.60;0.60;;;10.30;99.90;;;;;;5010305;28;20445;-80
2024/01/02 06:28:50;;;;;;;0.60;0.60;;;10.40;99.90;;;;;;5011712;28;20038;-80
2024/01/02 06:31:19;;;;;;;0.50;0.50;;;10.40;99.90;;;;;;5010490;28;20040;-82
2024/01/02 06:33:45;;;;;;;0.50;0.50;;;10.50;99.90;;;;;;5013084;28;20068;-83
2024/01/02 06:36:11;;;;;;;0.60;0.60;;;10.60;99.90;;;;;;5010290;28;20038;-79
2024/01/02 06:38:37;;;;;;;0.57;0.57;;;10.60;99.90;;;;;;5011298;28;20128;-81
2024/01/02 06:41:03;;;;;;;0.70;0.70;;;10.60;99.90;;;;;;5012293;28;20437;-79
2024/01/02 06:43:29;;;;;;;1.17;1.08;;;10.70;99.90;;;;;;5012558;28;20109;-81
2024/01/02 06:45:54;;;;;;;0.70;0.70;;;10.70;99.90;;;;;;5014137;28;20436;-79
2024/01/02 06:48:20;;;;;;;1.00;0.90;;;10.80;99.90;;;;;;5013606;28;20113;-81
2024/01/02 06:50:46;;;;;;;0.77;0.77;;;10.80;99.90;;;;;;5010737;28;20044;-79
2024/01/02 06:53:12;;;;;;;0.80;0.80;;;10.90;99.90;;;;;;5012561;28;20041;-79
2024/01/02 06:55:37;;;;;;;0.70;0.70;;;11.00;99.90;;;;;;5011318;28;20026;-81
2024/01/02 06:58:03;;;;;;;1.25;1.15;;;11.00;99.90;;;;;;5011700;28;20026;-80
2024/01/02 07:00:29;;;;;;;1.20;1.10;;;11.10;99.90;;;;;;5011619;28;20041;-81
2024/01/02 07:02:54;;;;;;;1.42;1.00;;;11.10;99.90;;;;;;5010679;28;20033;-78
2024/01/02 07:05:20;;;;;;;1.13;1.02;;;11.20;99.90;;;;;;5013174;28;20074;-81
2024/01/02 07:07:46;;;;;;;2.05;1.30;;;11.20;99.90;;;;;;5013808;28;20090;-83
2024/01/02 07:10:11;;;;;;;1.70;1.35;;;11.30;99.90;;;;;;5015113;28;20033;-80
2024/01/02 07:12:37;;;;;;;1.23;1.10;;;11.30;99.90;;;;;;5012909;28;20030;-79
2024/01/02 07:15:05;;;;;;;2.33;1.30;;;11.40;99.90;;;;;;5013967;28;20034;-80
2024/01/02 07:17:31;;;;;;;1.85;1.30;;;11.40;99.90;;;;;;5009930;28;20116;-80
2024/01/02 07:19:58;;;;;;;2.70;1.40;;;11.50;99.90;;;;;;5014393;28;20034;-79
2024/01/02 07:22:23;;;;;;;3.42;1.42;;;11.50;99.90;;;;;;5012311;28;20164;-81
2024/01/02 07:24:49;;;;;;;2.38;1.08;;;11.60;99.90;;;;;;5014062;28;20053;-82
2024/01/02 07:27:15;;;;;;;2.75;1.38;;;11.60;99.90;;;;;;5013623;28;20049;-79
2024/01/02 07:29:41;;;;;;;1.70;1.17;;;11.60;99.90;;;;;;5017432;28;20022;-81
2024/01/02 07:32:06;;;;;;;1.30;1.20;;;11.70;99.90;;;;;;5015256;28;20026;-82
2024/01/02 07:34:32;;;;;;;2.85;1.30;;;11.70;99.90;;;;;;5021241;28;20030;-79
2024/01/02 07:36:58;;;;;;;1.65;1.08;;;11.70;99.90;;;;;;5024972;28;20125;-80
2024/01/02 07:39:24;;;;;;;4.43;1.58;;;11.70;99.90;;;;;;5022274;28;20018;-79
2024/01/02 07:41:49;;;;;;;2.75;1.33;;;11.80;99.90;;;;;;5021408;28;20040;-82
2024/01/02 07:44:15;;;;;;;4.68;1.20;;;11.80;99.90;;;;;;5023436;28;20034;-79
2024/01/02 07:46:41;;;;;;;2.78;1.20;;;11.80;99.90;;;;;;5024285;28;20030;-82
2024/01/02 07:49:06;;;;;;;3.95;1.10;;;11.80;99.90;;;;;;5022132;28;20014;-82
2024/01/02 07:51:32;;;;;;;4.10;1.15;;;11.80;99.90;;;;;;5020377;28;20029;-82
2024/01/02 07:53:57;;;;;;;5.18;1.30;;;11.80;99.90;;;;;;5021213;28;20025;-81
2024/01/02 07:56:23;;;;;;;3.75;1.05;;;11.90;99.90;;;;;;5019870;28;20026;-82
2024/01/02 07:58:48;;;;;;;6.50;1.50;;;11.90;99.90;;;;;;5021310;28;20089;-81
2024/01/02 08:01:16;;;;;;;5.60;1.20;;;11.90;99.90;;;;;;5019937;28;20036;-82
2024/01/02 08:03:41;;;;;;;5.65;1.17;;;11.90;99.90;;;;;;5021813;28;20032;-82
2024/01/02 08:06:07;;;;;;;3.30;0.80;;;11.90;99.90;;;;;;5023063;28;20034;-82
2024/01/02 08:08:32;;;;;;;4.90;1.17;;;12.00;99.90;;;;;;5022369;28;20025;-81
2024/01/02 08:10:58;;;;;;;4.25;1.10;;;12.00;99.90;;;;;;5022561;28;20030;-81
2024/01/02 08:13:25;;;;;;;4.50;1.10;;;12.00;99.90;;;;;;5019141;28;20073;-82
2024/01/02 08:15:50;;;;;;;2.00;0.88;;;12.00;99.90;;;;;;5016872;28;20021;-82
2024/01/02 08:18:16;;;;;;;4.10;0.85;;;12.00;99.90;;;;;;5018656;28;20060;-80
2024/01/02 08:20:41;;;;;;;3.15;1.17;;;12.00;99.90;;;;;;5019861;28;20049;-82
2024/01/02 08:23:07;;;;;;;4.80;1.60;;;12.00;99.90;;;;;;5016776;28;20026;-82
2024/01/02 08:25:33;;;;;;;5.70;1.40;;;12.00;99.90;;;;;;5020068;28;20041;-81
2024/01/02 08:27:59;;;;;;;6.50;1.58;;;12.00;99.90;;;;;;5023570;28;20045;-81
2024/01/02 08:30:24;;;;;;;6.28;1.30;;;12.00;99.90;;;;;;5026071;28;20032;-81
2024/01/02 08:32:50;;;;;;;8.73;1.90;;;12.00;99.90;;;;;;5024541;28;20028;-81
2024/01/02 08:35:16;;;;;;;4.35;1.23;;;12.00;99.90;;;;;;5024767;28;20101;-80
2024/01/02 08:37:42;;;;;;;3.85;1.05;;;12.10;99.90;;;;;;5019723;28;20096;-82
2024/01/02 08:40:09;;;;;;;5.05;1.35;;;12.10;99.90;;;;;;5020704;28;20018;-83
2024/01/02 08:42:35;;;;;;;4.80;1.30;;;12.10;99.90;;;;;;5018914;28;20051;-80
2024/01/02 08:45:01;;;;;;;3.90;0.98;;;12.10;99.90;;;;;;5019137;28;20033;-80
2024/01/02 08:47:27;;;;;;;3.85;1.10;;;12.10;99.90;;;;;;5021600;28;20089;-83
2024/01/02 08:49:52;;;;;;;2.97;1.10;;;12.20;99.90;;;;;;5022578;28;20029;-81
2024/01/02 08:52:18;;;;;;;2.83;1.05;;;12.20;99.90;;;;;;5023360;28;20049;-82
2024/01/02 08:54:43;;;;;;;3.92;1.10;;;12.20;99.90;;;;;;5022961;28;20037;-80
2024/01/02 08:57:09;;;;;;;4.63;0.90;;;12.20;99.90;;;;;;5019732;28;20018;-82
2024/01/02 08:59:36;;;;;;;4.97;1.10;;;12.20;99.90;;;;;;5020125;28;20022;-83
2024/01/02 09:02:02;;;;;;;4.75;1.27;;;12.20;99.90;;;;;;5016570;28;20499;-81
2024/01/02 09:04:28;;;;;;;3.88;1.10;;;12.20;99.90;;;;;;5020019;28;20527;-81
2024/01/02 09:06:53;;;;;;;2.75;0.95;;;12.20;99.90;;;;;;5020037;28;20026;-81
2024/01/02 09:09:19;;;;;;;7.22;1.63;;;12.20;99.90;;;;;;5021197;28;20022;-82
2024/01/02 09:11:46;;;;;;;4.88;1.40;;;12.20;99.90;;;;;;5021167;28;20041;-81
2024/01/02 09:14:11;;;;;;;7.80;1.60;;;12.20;99.90;;;;;;5017666;28;20018;-82
2024/01/02 09:16:38;;;;;;;6.30;1.83;;;12.30;99.90;;;;;;5017651;28;20030;-78
2024/01/02 09:19:04;;;;;;;3.83;1.17;;;12.30;99.90;;;;;;5010423;28;20026;-80
2024/01/02 09:21:32;;;;;;;4.70;1.00;;;12.30;99.90;;;;;;5015126;28;20389;-79
2024/01/02 09:23:58;;;;;;;2.00;0.90;;;12.40;99.90;;;;;;5015744;28;20030;-79
2024/01/02 09:26:24;;;;;;;3.92;1.15;;;12.40;99.90;;;;;;5019925;28;20044;-80
2024/01/02 09:28:49;;;;;;;6.45;1.27;;;12.40;99.90;;;;;;5019701;28;20041;-81
2024/01/02 09:31:15;;;;;;;4.45;1.08;;;12.40;99.90;;;;;;5017426;28;20109;-78
2024/01/02 09:33:44;;;;;;;2.58;0.90;;;12.40;99.90;;;;;;5018258;28;20149;-79
2024/01/02 09:36:10;;;;;;;3.20;1.00;;;12.40;99.90;;;;;;5017668;28;20061;-81
2024/01/02 09:38:39;;;;;;;6.00;1.52;;;12.40;99.90;;;;;;5020192;28;20034;-78
2024/01/02 09:41:36;;;;;;;7.05;1.50;;;12.40;99.90;;;;;;5018484;28;20057;-82
2024/01/02 09:44:29;;;;;;;5.65;1.40;;;12.50;99.90;;;;;;5016232;28;20036;-81
2024/01/02 09:47:25;;;;;;;3.88;1.27;;;12.50;99.90;;;;;;5018428;28;20096;-81
2024/01/02 09:49:50;;;;;;;3.67;1.08;;;12.40;99.90;;;;;;4991721;28;20026;-79
2024/01/02 09:52:38;;;;;;;2.53;1.02;;;12.50;99.90;;;;;;5027984;28;20084;-81
2024/01/02 09:55:15;;;;;;;4.95;1.38;;;12.50;99.90;;;;;;5016701;28;20134;-81
2024/01/02 09:57:57;;;;;;;6.78;2.22;;;12.50;99.90;;;;;;5012106;28;20049;-78
2024/01/02 10:00:34;;;;;;;4.00;1.10;;;12.50;99.90;;;;;;5009474;28;20022;-81
2024/01/02 10:03:29;;;;;;;2.78;1.27;;;12.50;99.90;;;;;;5012856;28;20482;-79
2024/01/02 10:06:02;;;;;;;2.42;1.10;;;12.60;99.90;;;;;;5012219;28;20053;-81
2024/01/02 10:08:56;;;;;;;5.25;1.20;;;12.60;99.90;;;;;;5013832;28;20017;-80
2024/01/02 10:11:46;;;;;;;3.25;1.40;;;12.60;99.90;;;;;;5014919;28;20025;-82
2024/01/02 10:14:39;;;;;;;6.00;1.70;;;12.60;99.90;;;;;;5012725;28;20018;-80
2024/01/02 10:17:29;;;;;;;4.15;1.40;;;12.60;99.90;;;;;;5020107;28;20509;-80
2024/01/02 10:20:09;;;;;;;3.72;1.20;;;12.60;99.90;;;;;;5017043;28;20057;-82
2024/01/02 10:23:12;;;;;;;3.13;1.25;;;12.70;99.90;;;;;;5018447;28;20125;-79
2024/01/02 10:25:39;;;;;;;6.20;1.67;;;12.60;99.90;;;;;;5017277;28;20106;-80
2024/01/02 10:28:18;;;;;;;3.50;1.42;;;12.60;99.90;;;;;;5018740;28;20049;-79
2024/01/02 10:31:19;;;;;;;3.40;1.40;;;12.60;99.90;;;;;;5016577;28;20038;-80
2024/01/02 10:34:03;;;;;;;3.58;1.67;;;12.70;99.90;;;;;;5017374;28;20079;-79
2024/01/02 10:36:33;;;;;;;4.03;1.40;;;12.70;99.90;;;;;;5035818;28;20042;-82
2024/01/02 10:39:05;;;;;;;3.00;1.42;;;12.70;99.90;;;;;;5022188;28;20066;-81
2024/01/02 10:41:57;;;;;;;3.60;1.58;;;12.70;99.90;;;;;;5019179;28;20044;-83
2024/01/02 10:44:31;;;;;;;;;;;12.70;99.90;;;;;;5019417;28;20339;-83
2024/01/02 10:47:17;;;;;;;3.97;2.10;;;12.70;99.90;;;;;;5018363;28;19921;-80
2024/01/02 10:49:57;;;;;;;2.78;2.00;;;12.70;99.90;;;;;;5021064;28;20104;-80
2024/01/02 10:52:41;;;;;;;4.03;2.33;;;12.70;99.90;;;;;;5016335;28;20076;-82
2024/01/02 10:55:19;;;;;;;3.03;2.17;;;12.70;99.90;;;;;;5015598;28;20026;-80
2024/01/02 10:58:06;;;;;;;4.57;2.60;;;12.70;99.90;;;;;;5017251;28;20238;-82
2024/01/02 11:00:49;;;;;;;3.08;1.92;;;12.70;99.90;;;;;;5019487;28;20029;-84
2024/01/02 11:03:18;;;;;;;3.75;2.10;;;12.70;99.90;;;;;;4997164;28;20032;-80
2024/01/02 11:05:49;;;;;;;2.25;1.63;;;12.70;99.90;;;;;;5014687;28;20030;-80
2024/01/02 11:08:26;;;;;;;2.05;1.40;;;12.70;99.90;;;;;;5011963;28;20037;-80
2024/01/02 11:11:07;;;;;;;3.55;2.28;;;12.80;99.90;;;;;;5015722;28;20038;-80
2024/01/02 11:13:36;;;;;;;2.88;2.10;;;12.70;99.90;;;;;;5018703;28;20040;-81
2024/01/02 11:16:17;;;;;;;2.35;1.80;;;12.70;99.90;;;;;;5015578;28;20052;-80
2024/01/02 11:18:52;;;;;;;3.58;1.75;;;12.70;99.90;;;;;;5017301;28;20025;-79
2024/01/02 11:21:40;;;;;;;2.45;1.40;;;12.70;99.90;;;;;;5016712;28;20029;-79
2024/01/02 11:24:07;;;;;;;1.42;1.20;;;12.70;99.90;;;;;;5018308;28;20026;-82
2024/01/02 11:26:40;;;;;;;3.78;1.50;;;12.60;99.90;;;;;;5014209;28;20034;-82
2024/01/02 11:29:15;;;;;;;1.20;1.10;;;12.60;99.90;;;;;;5012761;28;20026;-82
2024/01/02 11:31:41;;;;;;;1.30;1.17;;;12.60;99.90;;;;;;5014873;28;20070;-79
2024/01/02 11:34:35;;;;;;;1.25;1.13;;;12.60;99.90;;;;;;5008251;28;20895;-79
2024/01/02 11:37:22;;;;;;;2.35;1.00;;;12.60;99.90;;;;;;5010913;28;20057;-79
2024/01/02 11:40:03;;;;;;;1.08;0.98;;;12.60;99.90;;;;;;5008554;28;20041;-81
2024/01/02 11:42:50;;;;;;;0.93;0.88;;;12.60;99.90;;;;;;5007309;28;20033;-79
2024/01/02 11:45:22;;;;;;;0.80;0.80;;;12.50;99.90;;;;;;5007260;28;20289;-79
2024/01/02 11:48:06;;;;;;;0.50;0.50;;;12.60;99.90;;;;;;5013987;28;20615;-79
2024/01/02 11:50:50;;;;;;;0.70;0.70;;;12.60;99.90;;;;;;5016024;28;20029;-80
2024/01/02 11:53:31;;;;;;;0.70;0.63;;;12.60;99.90;;;;;;5010797;28;20481;-79
2024/01/02 11:56:06;;;;;;;0.63;0.63;;;12.60;99.90;;;;;;5011023;28;20168;-81
2024/01/02 11:58:37;;;;;;;0.75;0.75;;;12.60;99.90;;;;;;5007344;28;20104;-80
2024/01/02 12:01:12;;;;;;;0.93;0.90;;;12.60;99.90;;;;;;5010435;28;20053;-79
2024/01/02 12:03:55;;;;;;;0.90;0.85;;;12.60;99.90;;;;;;5008922;28;20041;-79
2024/01/02 12:06:39;;;;;;;0.60;0.60;;;12.60;99.90;;;;;;5005064;28;20121;-81
2024/01/02 12:09:16;;;;;;;0.60;0.60;;;12.60;99.90;;;;;;5009309;28;20046;-79
2024/01/02 12:12:05;;;;;;;0.90;0.85;;;12.60;99.90;;;;;;5006476;28;20050;-80
2024/01/02 12:14:36;;;;;;;0.65;0.65;;;12.60;99.90;;;;;;5005916;28;20511;-80
2024/01/02 12:17:05;;;;;;;;;;;12.60;99.90;;;;;;5007841;28;20301;-81
2024/01/02 12:19:35;;;;;;;1.00;0.70;;;12.50;99.90;;;;;;5004183;28;19955;-80
2024/01/02 12:22:01;;;;;;;0.65;0.65;;;12.50;99.90;;;;;;5010083;28;20097;-80
2024/01/02 12:24:29;;;;;;;0.60;0.60;;;12.50;99.90;;;;;;5005536;28;20049;-81
2024/01/02 12:26:55;;;;;;;0.60;0.60;;;12.50;99.90;;;;;;5010127;28;20038;-79
2024/01/02 12:29:48;;;;;;;0.50;0.50;;;12.50;99.90;;;;;;5010779;28;20139;-80
2024/01/02 12:32:32;;;;;;;0.50;0.50;;;12.50;99.90;;;;;;5003920;28;20606;-83
2024/01/02 12:35:08;;;;;;;0.43;0.43;;;12.50;99.90;;;;;;4999015;28;20100;-80
2024/01/02 12:37:57;;;;;;;0.50;0.50;;;12.40;99.90;;;;;;5017644;28;20450;-80
2024/01/02 12:40:29;;;;;;;0.43;0.43;;;12.40;99.90;;;;;;4989129;28;20046;-79
2024/01/02 12:42:58;;;;;;;0.70;0.70;;;12.50;99.90;;;;;;5002251;28;20058;-80
2024/01/02 12:45:32;;;;;;;1.20;1.10;;;12.50;99.90;;;;;;5005205;28;20096;-81
2024/01/02 12:48:05;;;;;;;1.25;1.00;;;12.40;99.90;;;;;;5000209;28;20034;-80
2024/01/02 12:50:50;;;;;;;1.00;1.00;;;12.40;99.90;;;;;;5008281;28;20021;-82
2024/01/02 12:53:17;;;;;;;0.90;0.90;;;12.30;99.90;;;;;;5001611;28;20017;-80
2024/01/02 12:55:51;;;;;;;1.08;1.02;;;12.30;99.90;;;;;;5004252;28;20022;-81
2024/01/02 12:58:18;;;;;;;0.88;0.88;;;12.20;99.90;;;;;;5007198;28;20034;-81
2024/01/02 13:00:45;;;;;;;0.80;0.80;;;12.20;99.90;;;;;;5000451;28;20027;-79
2024/01/02 13:03:14;;;;;;;0.70;0.70;;;12.20;99.90;;;;;;5002590;28;20052;-80